Terminal Aerodrome Forecast
Issued by NWS Upton, NY

Current Version | Previous Version | Text Only | Print | Product List | Glossary On
Versions: 1 2 3 4 5 6 7 8 9 10 11 12 13 14 15 16 17 18 19 20 21 22 23 24 25 26 27 28 29 30 31 32 33 34 35
025
FTUS41 KOKX 241133
TAFEWR
TAF
KEWR 241133Z 2412/2518 32005KT 6SM -SHRA BR FEW035 BKN050
     FM241600 VRB05KT P6SM VCSH BKN050
     FM242000 14007KT P6SM VCSH FEW050 BKN090
     FM250000 26005KT P6SM SCT120
     FM251600 26012G19KT P6SM SCT250=

USA.gov is the U.S. government's official web portal to all federal, state and local government web resources and services.